sensor_id;sensor_type;location;lat;lon;timestamp;temperature;humidity
85333;DHT22;75747;53.652;10.168;2024-01-25T00:02:16;7.20;99.60
85333;DHT22;75747;53.652;10.168;2024-01-25T00:04:41;7.30;100.00
85333;DHT22;75747;53.652;10.168;2024-01-25T00:07:10;7.20;99.90
85333;DHT22;75747;53.652;10.168;2024-01-25T00:09:36;7.20;100.00
85333;DHT22;75747;53.652;10.168;2024-01-25T00:12:01;7.20;100.00
85333;DHT22;75747;53.652;10.168;2024-01-25T00:14:27;7.20;100.00
85333;DHT22;75747;53.652;10.168;2024-01-25T00:16:53;7.20;100.00
85333;DHT22;75747;53.652;10.168;2024-01-25T00:19:18;7.20;100.00
85333;DHT22;75747;53.652;10.168;2024-01-25T00:21:44;7.20;100.00
85333;DHT22;75747;53.652;10.168;2024-01-25T00:24:13;7.20;100.00
85333;DHT22;75747;53.652;10.168;2024-01-25T00:26:38;7.20;100.00
85333;DHT22;75747;53.652;10.168;2024-01-25T00:29:04;7.20;100.00
85333;DHT22;75747;53.652;10.168;2024-01-25T00:31:30;7.20;100.00
85333;DHT22;75747;53.652;10.168;2024-01-25T00:33:57;7.20;100.00
85333;DHT22;75747;53.652;10.168;2024-01-25T00:36:24;7.30;100.00
85333;DHT22;75747;53.652;10.168;2024-01-25T00:38:50;7.30;100.00
85333;DHT22;75747;53.652;10.168;2024-01-25T00:41:19;7.30;100.00
85333;DHT22;75747;53.652;10.168;2024-01-25T00:43:45;7.30;100.00
85333;DHT22;75747;53.652;10.168;2024-01-25T00:46:11;7.30;100.00
85333;DHT22;75747;53.652;10.168;2024-01-25T00:48:37;7.20;100.00
85333;DHT22;75747;53.652;10.168;2024-01-25T00:51:07;7.20;100.00
85333;DHT22;75747;53.652;10.168;2024-01-25T00:53:33;7.20;100.00
85333;DHT22;75747;53.652;10.168;2024-01-25T00:55:59;7.20;100.00
85333;DHT22;75747;53.652;10.168;2024-01-25T00:58:26;7.20;100.00
85333;DHT22;75747;53.652;10.168;2024-01-25T01:00:52;7.10;100.00
85333;DHT22;75747;53.652;10.168;2024-01-25T01:03:18;7.10;100.00
85333;DHT22;75747;53.652;10.168;2024-01-25T01:05:45;7.20;100.00
85333;DHT22;75747;53.652;10.168;2024-01-25T01:08:11;7.20;100.00
85333;DHT22;75747;53.652;10.168;2024-01-25T01:10:37;7.20;100.00
85333;DHT22;75747;53.652;10.168;2024-01-25T01:13:03;7.20;100.00
85333;DHT22;75747;53.652;10.168;2024-01-25T01:15:28;7.20;100.00
85333;DHT22;75747;53.652;10.168;2024-01-25T01:17:54;7.20;100.00
85333;DHT22;75747;53.652;10.168;2024-01-25T01:20:20;7.20;100.00
85333;DHT22;75747;53.652;10.168;2024-01-25T01:22:45;7.20;100.00
85333;DHT22;75747;53.652;10.168;2024-01-25T01:25:11;7.20;100.00
85333;DHT22;75747;53.652;10.168;2024-01-25T01:27:36;7.20;100.00
85333;DHT22;75747;53.652;10.168;2024-01-25T01:30:03;7.20;100.00
85333;DHT22;75747;53.652;10.168;2024-01-25T01:32:29;7.20;100.00
85333;DHT22;75747;53.652;10.168;2024-01-25T01:34:55;7.20;100.00
85333;DHT22;75747;53.652;10.168;2024-01-25T01:37:20;7.20;100.00
85333;DHT22;75747;53.652;10.168;2024-01-25T01:39:46;7.20;100.00
85333;DHT22;75747;53.652;10.168;2024-01-25T01:42:12;7.20;100.00
85333;DHT22;75747;53.652;10.168;2024-01-25T01:44:38;7.20;100.00
85333;DHT22;75747;53.652;10.168;2024-01-25T01:47:04;7.20;100.00
85333;DHT22;75747;53.652;10.168;2024-01-25T01:49:30;7.20;100.00
85333;DHT22;75747;53.652;10.168;2024-01-25T01:51:56;7.20;100.00
85333;DHT22;75747;53.652;10.168;2024-01-25T01:54:22;7.20;100.00
85333;DHT22;75747;53.652;10.168;2024-01-25T01:56:48;7.20;100.00
85333;DHT22;75747;53.652;10.168;2024-01-25T01:59:15;7.20;100.00
85333;DHT22;75747;53.652;10.168;2024-01-25T02:01:41;7.20;100.00
85333;DHT22;75747;53.652;10.168;2024-01-25T02:04:07;7.20;100.00
85333;DHT22;75747;53.652;10.168;2024-01-25T02:06:33;7.30;100.00
85333;DHT22;75747;53.652;10.168;2024-01-25T02:08:59;7.20;100.00
85333;DHT22;75747;53.652;10.168;2024-01-25T02:11:25;7.20;100.00
85333;DHT22;75747;53.652;10.168;2024-01-25T02:13:51;7.20;100.00
85333;DHT22;75747;53.652;10.168;2024-01-25T02:16:17;7.20;100.00
85333;DHT22;75747;53.652;10.168;2024-01-25T02:18:43;7.20;100.00
85333;DHT22;75747;53.652;10.168;2024-01-25T02:21:09;7.20;100.00
85333;DHT22;75747;53.652;10.168;2024-01-25T02:23:34;7.20;100.00
85333;DHT22;75747;53.652;10.168;2024-01-25T02:26:00;7.20;100.00
85333;DHT22;75747;53.652;10.168;2024-01-25T02:28:26;7.20;100.00
85333;DHT22;75747;53.652;10.168;2024-01-25T02:30:51;7.20;100.00
85333;DHT22;75747;53.652;10.168;2024-01-25T02:33:17;7.20;100.00
85333;DHT22;75747;53.652;10.168;2024-01-25T02:35:43;7.20;100.00
85333;DHT22;75747;53.652;10.168;2024-01-25T02:38:08;7.20;100.00
85333;DHT22;75747;53.652;10.168;2024-01-25T02:40:34;7.20;100.00
85333;DHT22;75747;53.652;10.168;2024-01-25T02:43:00;7.20;100.00
85333;DHT22;75747;53.652;10.168;2024-01-25T02:45:25;7.20;100.00
85333;DHT22;75747;53.652;10.168;2024-01-25T02:47:51;7.20;100.00
85333;DHT22;75747;53.652;10.168;2024-01-25T02:50:17;7.10;100.00
85333;DHT22;75747;53.652;10.168;2024-01-25T02:52:42;7.10;100.00
85333;DHT22;75747;53.652;10.168;2024-01-25T02:55:08;7.10;100.00
85333;DHT22;75747;53.652;10.168;2024-01-25T02:57:34;7.10;100.00
85333;DHT22;75747;53.652;10.168;2024-01-25T03:00:00;7.10;100.00
85333;DHT22;75747;53.652;10.168;2024-01-25T03:02:26;7.10;100.00
85333;DHT22;75747;53.652;10.168;2024-01-25T03:04:51;7.10;100.00
85333;DHT22;75747;53.652;10.168;2024-01-25T03:07:17;7.00;100.00
85333;DHT22;75747;53.652;10.168;2024-01-25T03:09:43;7.00;100.00
85333;DHT22;75747;53.652;10.168;2024-01-25T03:12:09;7.00;100.00
85333;DHT22;75747;53.652;10.168;2024-01-25T03:14:35;7.00;100.00
85333;DHT22;75747;53.652;10.168;2024-01-25T03:17:00;7.00;100.00
85333;DHT22;75747;53.652;10.168;2024-01-25T03:19:26;7.00;100.00
85333;DHT22;75747;53.652;10.168;2024-01-25T03:21:52;7.00;100.00
85333;DHT22;75747;53.652;10.168;2024-01-25T03:24:18;7.00;100.00
85333;DHT22;75747;53.652;10.168;2024-01-25T03:26:44;7.00;100.00
85333;DHT22;75747;53.652;10.168;2024-01-25T03:29:10;7.00;100.00
85333;DHT22;75747;53.652;10.168;2024-01-25T03:31:35;7.00;100.00
85333;DHT22;75747;53.652;10.168;2024-01-25T03:34:02;7.00;100.00
85333;DHT22;75747;53.652;10.168;2024-01-25T03:36:28;7.10;100.00
85333;DHT22;75747;53.652;10.168;2024-01-25T03:38:53;7.00;100.00
85333;DHT22;75747;53.652;10.168;2024-01-25T03:41:19;7.00;100.00
85333;DHT22;75747;53.652;10.168;2024-01-25T03:43:45;7.00;100.00
85333;DHT22;75747;53.652;10.168;2024-01-25T03:46:11;7.00;100.00
85333;DHT22;75747;53.652;10.168;2024-01-25T03:48:37;7.00;100.00
85333;DHT22;75747;53.652;10.168;2024-01-25T03:51:03;7.00;100.00
85333;DHT22;75747;53.652;10.168;2024-01-25T03:53:29;7.00;100.00
85333;DHT22;75747;53.652;10.168;2024-01-25T03:55:55;7.00;100.00
85333;DHT22;75747;53.652;10.168;2024-01-25T03:58:20;7.00;100.00
85333;DHT22;75747;53.652;10.168;2024-01-25T04:00:46;7.00;100.00
85333;DHT22;75747;53.652;10.168;2024-01-25T04:03:12;7.00;100.00
85333;DHT22;75747;53.652;10.168;2024-01-25T04:05:38;7.00;100.00
85333;DHT22;75747;53.652;10.168;2024-01-25T04:08:05;7.00;100.00
85333;DHT22;75747;53.652;10.168;2024-01-25T04:10:31;7.00;100.00
85333;DHT22;75747;53.652;10.168;2024-01-25T04:12:56;7.00;100.00
85333;DHT22;75747;53.652;10.168;2024-01-25T04:15:22;7.00;100.00
85333;DHT22;75747;53.652;10.168;2024-01-25T04:17:48;7.00;100.00
85333;DHT22;75747;53.652;10.168;2024-01-25T04:20:15;7.00;100.00
85333;DHT22;75747;53.652;10.168;2024-01-25T04:22:40;7.00;100.00
85333;DHT22;75747;53.652;10.168;2024-01-25T04:25:07;7.00;100.00
85333;DHT22;75747;53.652;10.168;2024-01-25T04:27:32;7.00;100.00
85333;DHT22;75747;53.652;10.168;2024-01-25T04:29:58;7.00;100.00
85333;DHT22;75747;53.652;10.168;2024-01-25T04:32:24;7.00;100.00
85333;DHT22;75747;53.652;10.168;2024-01-25T04:34:50;7.00;100.00
85333;DHT22;75747;53.652;10.168;2024-01-25T04:37:15;7.00;100.00
85333;DHT22;75747;53.652;10.168;2024-01-25T04:39:41;6.90;100.00
85333;DHT22;75747;53.652;10.168;2024-01-25T04:42:08;6.90;100.00
85333;DHT22;75747;53.652;10.168;2024-01-25T04:44:33;6.90;100.00
85333;DHT22;75747;53.652;10.168;2024-01-25T04:47:00;6.90;100.00
85333;DHT22;75747;53.652;10.168;2024-01-25T04:49:25;6.90;100.00
85333;DHT22;75747;53.652;10.168;2024-01-25T04:51:51;6.90;100.00
85333;DHT22;75747;53.652;10.168;2024-01-25T04:54:17;6.80;100.00
85333;DHT22;75747;53.652;10.168;2024-01-25T04:56:43;6.80;100.00
85333;DHT22;75747;53.652;10.168;2024-01-25T04:59:09;6.80;100.00
85333;DHT22;75747;53.652;10.168;2024-01-25T05:01:35;6.80;100.00
85333;DHT22;75747;53.652;10.168;2024-01-25T05:04:00;6.80;100.00
85333;DHT22;75747;53.652;10.168;2024-01-25T05:06:26;6.90;100.00
85333;DHT22;75747;53.652;10.168;2024-01-25T05:08:52;6.80;100.00
85333;DHT22;75747;53.652;10.168;2024-01-25T05:11:18;6.80;100.00
85333;DHT22;75747;53.652;10.168;2024-01-25T05:13:43;6.90;100.00
85333;DHT22;75747;53.652;10.168;2024-01-25T05:16:09;6.80;100.00
85333;DHT22;75747;53.652;10.168;2024-01-25T05:18:34;6.90;100.00
85333;DHT22;75747;53.652;10.168;2024-01-25T05:21:00;6.90;100.00
85333;DHT22;75747;53.652;10.168;2024-01-25T05:23:26;6.90;100.00
85333;DHT22;75747;53.652;10.168;2024-01-25T05:25:52;6.80;100.00
85333;DHT22;75747;53.652;10.168;2024-01-25T05:28:18;6.80;100.00
85333;DHT22;75747;53.652;10.168;2024-01-25T05:30:43;6.90;100.00
85333;DHT22;75747;53.652;10.168;2024-01-25T05:33:09;6.80;100.00
85333;DHT22;75747;53.652;10.168;2024-01-25T05:35:35;6.80;100.00
85333;DHT22;75747;53.652;10.168;2024-01-25T05:38:01;6.80;100.00
85333;DHT22;75747;53.652;10.168;2024-01-25T05:40:27;6.90;100.00
85333;DHT22;75747;53.652;10.168;2024-01-25T05:42:53;6.80;100.00
85333;DHT22;75747;53.652;10.168;2024-01-25T05:45:18;6.80;100.00
85333;DHT22;75747;53.652;10.168;2024-01-25T05:47:47;6.80;100.00
85333;DHT22;75747;53.652;10.168;2024-01-25T05:50:12;6.80;100.00
85333;DHT22;75747;53.652;10.168;2024-01-25T05:52:38;6.80;100.00
85333;DHT22;75747;53.652;10.168;2024-01-25T05:55:05;6.80;100.00
85333;DHT22;75747;53.652;10.168;2024-01-25T05:57:31;6.80;100.00
85333;DHT22;75747;53.652;10.168;2024-01-25T05:59:57;6.80;100.00
85333;DHT22;75747;53.652;10.168;2024-01-25T06:02:23;6.80;100.00
85333;DHT22;75747;53.652;10.168;2024-01-25T06:04:48;6.80;100.00
85333;DHT22;75747;53.652;10.168;2024-01-25T06:07:14;6.80;100.00
85333;DHT22;75747;53.652;10.168;2024-01-25T06:09:40;6.80;100.00
85333;DHT22;75747;53.652;10.168;2024-01-25T06:12:06;6.80;100.00
85333;DHT22;75747;53.652;10.168;2024-01-25T06:14:31;6.80;100.00
85333;DHT22;75747;53.652;10.168;2024-01-25T06:16:57;6.80;100.00
85333;DHT22;75747;53.652;10.168;2024-01-25T06:19:23;6.80;100.00
85333;DHT22;75747;53.652;10.168;2024-01-25T06:21:50;6.80;100.00
85333;DHT22;75747;53.652;10.168;2024-01-25T06:24:15;6.70;100.00
85333;DHT22;75747;53.652;10.168;2024-01-25T06:26:41;6.70;100.00
85333;DHT22;75747;53.652;10.168;2024-01-25T06:29:07;6.70;100.00
85333;DHT22;75747;53.652;10.168;2024-01-25T06:31:32;6.70;100.00
85333;DHT22;75747;53.652;10.168;2024-01-25T06:33:58;6.70;100.00
85333;DHT22;75747;53.652;10.168;2024-01-25T06:36:23;6.80;100.00
85333;DHT22;75747;53.652;10.168;2024-01-25T06:38:49;6.80;100.00
85333;DHT22;75747;53.652;10.168;2024-01-25T06:41:15;6.70;100.00
85333;DHT22;75747;53.652;10.168;2024-01-25T06:43:42;6.80;100.00
85333;DHT22;75747;53.652;10.168;2024-01-25T06:46:08;6.80;100.00
85333;DHT22;75747;53.652;10.168;2024-01-25T06:48:34;6.80;100.00
85333;DHT22;75747;53.652;10.168;2024-01-25T06:51:00;6.80;100.00
85333;DHT22;75747;53.652;10.168;2024-01-25T06:53:28;6.80;100.00
85333;DHT22;75747;53.652;10.168;2024-01-25T06:55:55;6.80;100.00
85333;DHT22;75747;53.652;10.168;2024-01-25T06:58:20;6.70;100.00
85333;DHT22;75747;53.652;10.168;2024-01-25T07:00:46;6.80;100.00
85333;DHT22;75747;53.652;10.168;2024-01-25T07:03:12;6.80;100.00
85333;DHT22;75747;53.652;10.168;2024-01-25T07:05:38;6.80;100.00
85333;DHT22;75747;53.652;10.168;2024-01-25T07:08:04;6.80;100.00
85333;DHT22;75747;53.652;10.168;2024-01-25T07:10:30;6.80;100.00
85333;DHT22;75747;53.652;10.168;2024-01-25T07:12:56;6.80;100.00
85333;DHT22;75747;53.652;10.168;2024-01-25T07:15:22;6.70;100.00
85333;DHT22;75747;53.652;10.168;2024-01-25T07:17:47;6.70;100.00
85333;DHT22;75747;53.652;10.168;2024-01-25T07:20:13;6.70;100.00
85333;DHT22;75747;53.652;10.168;2024-01-25T07:22:40;6.70;100.00
85333;DHT22;75747;53.652;10.168;2024-01-25T07:25:05;6.70;100.00
85333;DHT22;75747;53.652;10.168;2024-01-25T07:27:31;6.70;100.00
85333;DHT22;75747;53.652;10.168;2024-01-25T07:29:57;6.60;100.00
85333;DHT22;75747;53.652;10.168;2024-01-25T07:32:23;6.60;100.00
85333;DHT22;75747;53.652;10.168;2024-01-25T07:34:52;6.60;100.00
85333;DHT22;75747;53.652;10.168;2024-01-25T07:37:19;6.60;100.00
85333;DHT22;75747;53.652;10.168;2024-01-25T07:39:45;6.60;100.00
85333;DHT22;75747;53.652;10.168;2024-01-25T07:42:11;6.50;100.00
85333;DHT22;75747;53.652;10.168;2024-01-25T07:44:37;6.50;100.00
85333;DHT22;75747;53.652;10.168;2024-01-25T07:47:03;6.50;100.00
85333;DHT22;75747;53.652;10.168;2024-01-25T07:49:29;6.50;100.00
85333;DHT22;75747;53.652;10.168;2024-01-25T07:51:55;6.40;100.00
85333;DHT22;75747;53.652;10.168;2024-01-25T07:54:24;6.40;100.00
85333;DHT22;75747;53.652;10.168;2024-01-25T07:56:50;6.40;100.00
85333;DHT22;75747;53.652;10.168;2024-01-25T07:59:15;6.40;100.00
85333;DHT22;75747;53.652;10.168;2024-01-25T08:01:42;6.40;100.00
85333;DHT22;75747;53.652;10.168;2024-01-25T08:04:07;6.50;100.00
85333;DHT22;75747;53.652;10.168;2024-01-25T08:06:33;6.50;100.00
85333;DHT22;75747;53.652;10.168;2024-01-25T08:08:58;6.50;100.00
85333;DHT22;75747;53.652;10.168;2024-01-25T08:11:25;6.50;100.00
85333;DHT22;75747;53.652;10.168;2024-01-25T08:13:50;6.50;100.00
85333;DHT22;75747;53.652;10.168;2024-01-25T08:16:16;6.60;100.00
85333;DHT22;75747;53.652;10.168;2024-01-25T08:18:46;6.60;100.00
85333;DHT22;75747;53.652;10.168;2024-01-25T08:21:12;6.60;100.00
85333;DHT22;75747;53.652;10.168;2024-01-25T08:23:38;6.70;100.00
85333;DHT22;75747;53.652;10.168;2024-01-25T08:26:05;6.70;100.00
85333;DHT22;75747;53.652;10.168;2024-01-25T08:28:31;6.70;100.00
85333;DHT22;75747;53.652;10.168;2024-01-25T08:30:56;6.70;100.00
85333;DHT22;75747;53.652;10.168;2024-01-25T08:33:22;6.70;100.00
85333;DHT22;75747;53.652;10.168;2024-01-25T08:35:50;6.80;100.00
85333;DHT22;75747;53.652;10.168;2024-01-25T08:38:16;6.80;100.00
85333;DHT22;75747;53.652;10.168;2024-01-25T08:40:42;6.80;100.00
85333;DHT22;75747;53.652;10.168;2024-01-25T08:43:08;6.80;100.00
85333;DHT22;75747;53.652;10.168;2024-01-25T08:45:33;6.80;100.00
85333;DHT22;75747;53.652;10.168;2024-01-25T08:47:59;6.90;100.00
85333;DHT22;75747;53.652;10.168;2024-01-25T08:50:25;7.00;100.00
85333;DHT22;75747;53.652;10.168;2024-01-25T08:52:51;7.00;100.00
85333;DHT22;75747;53.652;10.168;2024-01-25T08:55:17;7.00;100.00
85333;DHT22;75747;53.652;10.168;2024-01-25T08:57:43;7.10;100.00
85333;DHT22;75747;53.652;10.168;2024-01-25T09:00:10;7.10;100.00
85333;DHT22;75747;53.652;10.168;2024-01-25T09:02:36;7.10;100.00
85333;DHT22;75747;53.652;10.168;2024-01-25T09:05:02;7.00;100.00
85333;DHT22;75747;53.652;10.168;2024-01-25T09:07:29;6.90;100.00
85333;DHT22;75747;53.652;10.168;2024-01-25T09:09:54;6.90;100.00
85333;DHT22;75747;53.652;10.168;2024-01-25T09:12:20;6.90;100.00
85333;DHT22;75747;53.652;10.168;2024-01-25T09:14:46;7.00;100.00
85333;DHT22;75747;53.652;10.168;2024-01-25T09:17:11;7.10;100.00
85333;DHT22;75747;53.652;10.168;2024-01-25T09:19:39;7.20;100.00
85333;DHT22;75747;53.652;10.168;2024-01-25T09:22:06;7.20;100.00
85333;DHT22;75747;53.652;10.168;2024-01-25T09:24:33;7.20;100.00
85333;DHT22;75747;53.652;10.168;2024-01-25T09:27:01;7.20;100.00
85333;DHT22;75747;53.652;10.168;2024-01-25T09:29:28;7.20;100.00
85333;DHT22;75747;53.652;10.168;2024-01-25T09:31:54;7.20;100.00
85333;DHT22;75747;53.652;10.168;2024-01-25T09:34:20;7.20;100.00
85333;DHT22;75747;53.652;10.168;2024-01-25T09:36:46;7.30;100.00
85333;DHT22;75747;53.652;10.168;2024-01-25T09:39:13;7.40;100.00
85333;DHT22;75747;53.652;10.168;2024-01-25T09:41:40;7.40;100.00
85333;DHT22;75747;53.652;10.168;2024-01-25T09:44:08;7.40;100.00
85333;DHT22;75747;53.652;10.168;2024-01-25T09:46:34;7.40;100.00
85333;DHT22;75747;53.652;10.168;2024-01-25T09:49:03;7.40;100.00
85333;DHT22;75747;53.652;10.168;2024-01-25T09:51:36;7.40;100.00
85333;DHT22;75747;53.652;10.168;2024-01-25T09:54:03;7.40;100.00
85333;DHT22;75747;53.652;10.168;2024-01-25T09:56:31;7.50;100.00
85333;DHT22;75747;53.652;10.168;2024-01-25T09:58:58;7.50;100.00
85333;DHT22;75747;53.652;10.168;2024-01-25T10:01:24;7.50;100.00
85333;DHT22;75747;53.652;10.168;2024-01-25T10:03:50;7.50;100.00
85333;DHT22;75747;53.652;10.168;2024-01-25T10:06:17;7.50;100.00
85333;DHT22;75747;53.652;10.168;2024-01-25T10:08:43;7.50;100.00
85333;DHT22;75747;53.652;10.168;2024-01-25T10:11:09;7.50;100.00
85333;DHT22;75747;53.652;10.168;2024-01-25T10:13:44;7.60;100.00
85333;DHT22;75747;53.652;10.168;2024-01-25T10:16:13;7.60;100.00
85333;DHT22;75747;53.652;10.168;2024-01-25T10:18:44;7.60;100.00
85333;DHT22;75747;53.652;10.168;2024-01-25T10:21:11;7.60;100.00
85333;DHT22;75747;53.652;10.168;2024-01-25T10:23:37;7.60;100.00
85333;DHT22;75747;53.652;10.168;2024-01-25T10:26:03;7.60;100.00
85333;DHT22;75747;53.652;10.168;2024-01-25T10:28:29;7.70;100.00
85333;DHT22;75747;53.652;10.168;2024-01-25T10:30:57;7.70;100.00
85333;DHT22;75747;53.652;10.168;2024-01-25T10:33:26;7.70;100.00
85333;DHT22;75747;53.652;10.168;2024-01-25T10:35:54;7.70;100.00
85333;DHT22;75747;53.652;10.168;2024-01-25T10:38:21;7.70;100.00
85333;DHT22;75747;53.652;10.168;2024-01-25T10:40:47;7.60;100.00
85333;DHT22;75747;53.652;10.168;2024-01-25T10:43:13;7.70;100.00
85333;DHT22;75747;53.652;10.168;2024-01-25T10:45:39;7.70;100.00
85333;DHT22;75747;53.652;10.168;2024-01-25T10:48:05;7.80;100.00
85333;DHT22;75747;53.652;10.168;2024-01-25T10:50:32;7.80;100.00
85333;DHT22;75747;53.652;10.168;2024-01-25T10:52:58;7.80;100.00
85333;DHT22;75747;53.652;10.168;2024-01-25T10:55:25;7.70;100.00
85333;DHT22;75747;53.652;10.168;2024-01-25T10:57:51;7.80;100.00
85333;DHT22;75747;53.652;10.168;2024-01-25T11:00:17;7.90;100.00
85333;DHT22;75747;53.652;10.168;2024-01-25T11:02:45;7.90;100.00
85333;DHT22;75747;53.652;10.168;2024-01-25T11:05:15;7.90;100.00
85333;DHT22;75747;53.652;10.168;2024-01-25T11:07:43;7.90;100.00
85333;DHT22;75747;53.652;10.168;2024-01-25T11:10:20;7.90;100.00
85333;DHT22;75747;53.652;10.168;2024-01-25T11:15:22;7.80;100.00
85333;DHT22;75747;53.652;10.168;2024-01-25T11:17:54;7.90;100.00
85333;DHT22;75747;53.652;10.168;2024-01-25T11:20:21;7.90;100.00
85333;DHT22;75747;53.652;10.168;2024-01-25T11:22:47;7.80;100.00
85333;DHT22;75747;53.652;10.168;2024-01-25T11:25:22;7.70;100.00
85333;DHT22;75747;53.652;10.168;2024-01-25T11:27:49;7.80;100.00
85333;DHT22;75747;53.652;10.168;2024-01-25T11:30:17;8.00;100.00
85333;DHT22;75747;53.652;10.168;2024-01-25T11:32:46;8.10;100.00
85333;DHT22;75747;53.652;10.168;2024-01-25T11:35:13;8.10;99.50
85333;DHT22;75747;53.652;10.168;2024-01-25T11:37:45;8.20;99.10
85333;DHT22;75747;53.652;10.168;2024-01-25T11:40:12;8.20;98.80
85333;DHT22;75747;53.652;10.168;2024-01-25T11:42:39;8.20;98.50
85333;DHT22;75747;53.652;10.168;2024-01-25T11:45:08;8.20;98.80
85333;DHT22;75747;53.652;10.168;2024-01-25T11:47:35;8.30;98.50
85333;DHT22;75747;53.652;10.168;2024-01-25T11:50:02;8.30;98.40
85333;DHT22;75747;53.652;10.168;2024-01-25T11:52:28;8.40;98.30
85333;DHT22;75747;53.652;10.168;2024-01-25T11:54:54;8.40;97.70
85333;DHT22;75747;53.652;10.168;2024-01-25T11:57:20;8.40;97.90
85333;DHT22;75747;53.652;10.168;2024-01-25T11:59:46;8.50;97.90
85333;DHT22;75747;53.652;10.168;2024-01-25T12:02:15;8.40;97.50
85333;DHT22;75747;53.652;10.168;2024-01-25T12:04:41;8.50;97.80
85333;DHT22;75747;53.652;10.168;2024-01-25T12:07:07;8.60;97.70
85333;DHT22;75747;53.652;10.168;2024-01-25T12:09:33;8.60;97.20
85333;DHT22;75747;53.652;10.168;2024-01-25T12:12:00;8.60;96.50
85333;DHT22;75747;53.652;10.168;2024-01-25T12:14:27;8.70;96.30
85333;DHT22;75747;53.652;10.168;2024-01-25T12:16:56;8.80;96.00
85333;DHT22;75747;53.652;10.168;2024-01-25T12:19:22;8.60;94.90
85333;DHT22;75747;53.652;10.168;2024-01-25T12:21:48;8.30;94.70
85333;DHT22;75747;53.652;10.168;2024-01-25T12:24:13;8.10;95.60
85333;DHT22;75747;53.652;10.168;2024-01-25T12:26:41;8.10;96.10
85333;DHT22;75747;53.652;10.168;2024-01-25T12:29:06;8.00;96.40
85333;DHT22;75747;53.652;10.168;2024-01-25T12:31:33;8.00;96.40
85333;DHT22;75747;53.652;10.168;2024-01-25T12:34:00;8.00;96.00
85333;DHT22;75747;53.652;10.168;2024-01-25T12:36:26;8.00;96.10
85333;DHT22;75747;53.652;10.168;2024-01-25T12:38:52;8.10;96.00
85333;DHT22;75747;53.652;10.168;2024-01-25T12:41:17;8.10;94.70
85333;DHT22;75747;53.652;10.168;2024-01-25T12:43:43;8.00;94.80
85333;DHT22;75747;53.652;10.168;2024-01-25T12:46:09;7.90;95.80
85333;DHT22;75747;53.652;10.168;2024-01-25T12:48:34;7.80;96.70
85333;DHT22;75747;53.652;10.168;2024-01-25T12:51:01;7.70;97.80
85333;DHT22;75747;53.652;10.168;2024-01-25T12:53:27;7.70;98.00
85333;DHT22;75747;53.652;10.168;2024-01-25T12:55:52;7.80;98.20
85333;DHT22;75747;53.652;10.168;2024-01-25T12:58:18;7.70;98.50
85333;DHT22;75747;53.652;10.168;2024-01-25T13:00:44;7.70;99.30
85333;DHT22;75747;53.652;10.168;2024-01-25T13:03:11;7.70;99.70
85333;DHT22;75747;53.652;10.168;2024-01-25T13:05:36;7.70;100.00
85333;DHT22;75747;53.652;10.168;2024-01-25T13:08:05;7.60;100.00
85333;DHT22;75747;53.652;10.168;2024-01-25T13:10:31;7.60;100.00
85333;DHT22;75747;53.652;10.168;2024-01-25T13:13:00;7.60;100.00
85333;DHT22;75747;53.652;10.168;2024-01-25T13:15:25;7.60;100.00
85333;DHT22;75747;53.652;10.168;2024-01-25T13:17:52;7.50;100.00
85333;DHT22;75747;53.652;10.168;2024-01-25T13:20:18;7.50;100.00
85333;DHT22;75747;53.652;10.168;2024-01-25T13:22:43;7.50;100.00
85333;DHT22;75747;53.652;10.168;2024-01-25T13:25:09;7.60;100.00
85333;DHT22;75747;53.652;10.168;2024-01-25T13:27:36;7.60;100.00
85333;DHT22;75747;53.652;10.168;2024-01-25T13:30:02;7.70;100.00
85333;DHT22;75747;53.652;10.168;2024-01-25T13:32:29;7.70;100.00
85333;DHT22;75747;53.652;10.168;2024-01-25T13:34:55;7.70;100.00
85333;DHT22;75747;53.652;10.168;2024-01-25T13:37:20;7.70;100.00
85333;DHT22;75747;53.652;10.168;2024-01-25T13:39:46;7.70;100.00
85333;DHT22;75747;53.652;10.168;2024-01-25T13:42:12;7.70;100.00
85333;DHT22;75747;53.652;10.168;2024-01-25T13:44:37;7.70;100.00
85333;DHT22;75747;53.652;10.168;2024-01-25T13:47:04;7.70;100.00
85333;DHT22;75747;53.652;10.168;2024-01-25T13:49:29;7.70;100.00
85333;DHT22;75747;53.652;10.168;2024-01-25T13:51:55;7.60;100.00
85333;DHT22;75747;53.652;10.168;2024-01-25T13:54:21;7.60;100.00
85333;DHT22;75747;53.652;10.168;2024-01-25T13:56:46;7.60;100.00
85333;DHT22;75747;53.652;10.168;2024-01-25T13:59:12;7.60;100.00
85333;DHT22;75747;53.652;10.168;2024-01-25T14:01:38;7.60;100.00
85333;DHT22;75747;53.652;10.168;2024-01-25T14:04:04;7.60;100.00
85333;DHT22;75747;53.652;10.168;2024-01-25T14:06:29;7.60;100.00
85333;DHT22;75747;53.652;10.168;2024-01-25T14:08:55;7.70;100.00
85333;DHT22;75747;53.652;10.168;2024-01-25T14:11:21;7.70;100.00
85333;DHT22;75747;53.652;10.168;2024-01-25T14:13:46;7.70;100.00
85333;DHT22;75747;53.652;10.168;2024-01-25T14:16:12;7.70;100.00
85333;DHT22;75747;53.652;10.168;2024-01-25T14:18:42;7.70;100.00
85333;DHT22;75747;53.652;10.168;2024-01-25T14:21:08;7.70;100.00
85333;DHT22;75747;53.652;10.168;2024-01-25T14:23:34;7.70;100.00
85333;DHT22;75747;53.652;10.168;2024-01-25T14:26:00;7.70;100.00
85333;DHT22;75747;53.652;10.168;2024-01-25T14:28:25;7.80;100.00
85333;DHT22;75747;53.652;10.168;2024-01-25T14:30:51;7.80;100.00
85333;DHT22;75747;53.652;10.168;2024-01-25T14:33:16;7.80;100.00
85333;DHT22;75747;53.652;10.168;2024-01-25T14:35:43;7.90;100.00
85333;DHT22;75747;53.652;10.168;2024-01-25T14:38:08;8.10;100.00
85333;DHT22;75747;53.652;10.168;2024-01-25T14:40:34;8.10;100.00
85333;DHT22;75747;53.652;10.168;2024-01-25T14:43:00;8.20;100.00
85333;DHT22;75747;53.652;10.168;2024-01-25T14:45:27;8.20;99.30
85333;DHT22;75747;53.652;10.168;2024-01-25T14:47:55;8.20;99.40
85333;DHT22;75747;53.652;10.168;2024-01-25T14:50:21;8.10;99.70
85333;DHT22;75747;53.652;10.168;2024-01-25T14:52:47;8.10;100.00
85333;DHT22;75747;53.652;10.168;2024-01-25T14:55:12;8.00;100.00
85333;DHT22;75747;53.652;10.168;2024-01-25T14:57:38;8.00;100.00
85333;DHT22;75747;53.652;10.168;2024-01-25T15:00:04;8.00;100.00
85333;DHT22;75747;53.652;10.168;2024-01-25T15:02:32;8.00;100.00
85333;DHT22;75747;53.652;10.168;2024-01-25T15:04:58;7.90;100.00
85333;DHT22;75747;53.652;10.168;2024-01-25T15:07:23;7.90;100.00
85333;DHT22;75747;53.652;10.168;2024-01-25T15:09:49;7.90;100.00
85333;DHT22;75747;53.652;10.168;2024-01-25T15:12:15;7.80;100.00
85333;DHT22;75747;53.652;10.168;2024-01-25T15:14:41;7.80;100.00